createdAt,value
2022-08-28T00:05:09.654Z,66.4
2022-08-28T00:11:09.571Z,67.5
2022-08-28T00:17:09.562Z,70.2
2022-08-28T00:23:09.586Z,72
2022-08-28T00:29:09.567Z,72.2
2022-08-28T00:35:09.564Z,72.7
2022-08-28T00:41:09.580Z,73
2022-08-28T00:47:09.583Z,70
2022-08-28T00:53:09.567Z,71.8
2022-08-28T00:59:09.567Z,71
2022-08-28T01:05:09.598Z,70
2022-08-28T01:11:09.572Z,72.8
2022-08-28T01:17:09.578Z,73.4
2022-08-28T01:23:09.578Z,73.1
2022-08-28T01:29:09.578Z,72.4
2022-08-28T01:35:09.565Z,72.6
2022-08-28T01:41:09.588Z,73.2
2022-08-28T01:47:09.568Z,72.7
2022-08-28T01:53:12.482Z,72.4
2022-08-28T01:59:09.598Z,73.5
2022-08-28T02:05:09.609Z,73.8
2022-08-28T02:11:09.580Z,73.8
2022-08-28T02:17:09.592Z,73.1
2022-08-28T02:23:09.591Z,73.9
2022-08-28T02:29:09.590Z,73.8
2022-08-28T02:35:12.006Z,73.9
2022-08-28T02:41:09.594Z,74.2
2022-08-28T02:47:09.594Z,74.2
2022-08-28T02:53:09.585Z,74.3
2022-08-28T02:59:09.610Z,74.8
2022-08-28T03:05:09.595Z,74.7
2022-08-28T03:11:09.595Z,74.1
2022-08-28T03:17:09.597Z,74.6
2022-08-28T03:23:09.599Z,74.2
2022-08-28T03:29:09.601Z,74.3
2022-08-28T03:35:09.633Z,74.5
2022-08-28T03:41:09.605Z,75.3
2022-08-28T03:47:09.597Z,74
2022-08-28T03:53:09.623Z,75.9
2022-08-28T03:59:09.632Z,75.2
2022-08-28T04:05:09.630Z,75.3
2022-08-28T04:11:09.622Z,75.5
2022-08-28T04:17:09.676Z,75.6
2022-08-28T04:23:09.594Z,75.9
2022-08-28T04:29:09.603Z,76.5
2022-08-28T04:35:09.600Z,76.1
2022-08-28T04:41:09.610Z,76.2
2022-08-28T04:47:09.594Z,76.5
2022-08-28T04:53:09.610Z,77.5
2022-08-28T04:59:09.613Z,77
2022-08-28T05:05:09.603Z,76.9
2022-08-28T05:11:09.657Z,77.2
2022-08-28T05:17:09.630Z,76.9
2022-08-28T05:23:09.604Z,76.7
2022-08-28T05:29:09.601Z,76.2
2022-08-28T05:35:09.611Z,76.2
2022-08-28T05:41:09.618Z,75.6
2022-08-28T05:47:09.647Z,75.6
2022-08-28T05:53:09.646Z,75.1
2022-08-28T05:59:09.605Z,75.3
2022-08-28T06:05:09.603Z,74.6
2022-08-28T06:11:09.636Z,73.6
2022-08-28T06:17:09.637Z,72
2022-08-28T06:23:09.613Z,71.1
2022-08-28T06:29:09.602Z,70.1
2022-08-28T06:35:09.643Z,68.8
2022-08-28T06:41:09.635Z,68.3
2022-08-28T06:47:09.644Z,65.5
2022-08-28T06:53:09.625Z,59.7
2022-08-28T06:59:09.611Z,54.9
2022-08-28T07:05:09.606Z,48.1
2022-08-28T07:11:09.629Z,48.7
2022-08-28T07:17:09.641Z,42
2022-08-28T07:23:09.618Z,41.9
2022-08-28T07:29:11.432Z,38.6
2022-08-28T07:35:10.762Z,36.7
2022-08-28T07:41:09.634Z,38.2
2022-08-28T07:47:09.632Z,37.8
2022-08-28T07:53:09.634Z,39.2
2022-08-28T07:59:09.640Z,37.1
2022-08-28T08:05:09.655Z,35.6
2022-08-28T08:11:10.674Z,34.1
2022-08-28T08:17:09.665Z,33.2
2022-08-28T08:23:09.640Z,36
2022-08-28T08:29:09.635Z,32.9
2022-08-28T08:35:09.667Z,34.5
2022-08-28T08:41:09.653Z,31.8
2022-08-28T08:47:14.162Z,33
2022-08-28T08:53:09.677Z,29.3
2022-08-28T08:59:09.676Z,30.1
2022-08-28T09:05:09.669Z,30.6
2022-08-28T09:11:09.673Z,30.1
2022-08-28T09:17:09.705Z,31.5
2022-08-28T09:23:12.538Z,30.9
2022-08-28T09:29:09.700Z,31.1
2022-08-28T09:35:09.693Z,31.7
2022-08-28T09:41:09.703Z,32.6
2022-08-28T09:47:09.689Z,32.5
2022-08-28T09:53:09.681Z,32.1
2022-08-28T09:59:09.721Z,32.4
2022-08-28T10:05:09.689Z,31.6
2022-08-28T10:11:09.696Z,32.6
2022-08-28T10:17:09.712Z,30.7
2022-08-28T10:23:11.013Z,31.4
2022-08-28T10:29:09.770Z,28.8
2022-08-28T10:35:09.702Z,27.5
2022-08-28T10:41:09.702Z,29.2
2022-08-28T10:47:09.721Z,30.4
2022-08-28T10:53:09.734Z,31.6
2022-08-28T10:59:09.723Z,30.8
2022-08-28T11:05:09.754Z,31.2
2022-08-28T11:11:09.720Z,30.5
2022-08-28T11:17:09.796Z,28.1
2022-08-28T11:23:09.792Z,33.9
2022-08-28T11:29:09.739Z,36.2
2022-08-28T11:35:09.724Z,35.7
2022-08-28T11:41:09.721Z,35
2022-08-28T11:47:09.726Z,37.7
2022-08-28T11:53:09.804Z,37.4
2022-08-28T11:59:09.856Z,36.4
2022-08-28T12:05:09.734Z,36.8
2022-08-28T12:11:09.730Z,37.6
2022-08-28T12:17:09.765Z,36
2022-08-28T12:23:09.762Z,37.2
2022-08-28T12:29:09.769Z,36.4
2022-08-28T12:35:09.738Z,37.3
2022-08-28T12:41:09.753Z,35.1
2022-08-28T12:47:09.740Z,38.6
2022-08-28T12:53:09.757Z,37.1
2022-08-28T12:59:09.770Z,36.6
2022-08-28T13:05:09.738Z,36.4
2022-08-28T13:11:09.763Z,37.4
2022-08-28T13:17:09.768Z,36.3
2022-08-28T13:23:09.762Z,36.6
2022-08-28T13:29:09.763Z,35.3
2022-08-28T13:35:09.781Z,36.1
2022-08-28T13:41:09.852Z,37.1
2022-08-28T13:47:09.766Z,35.7
2022-08-28T13:53:09.794Z,35.2
2022-08-28T13:59:09.753Z,35.8
2022-08-28T14:05:09.764Z,35.2
2022-08-28T14:11:12.754Z,36.7
2022-08-28T14:17:09.765Z,36.7
2022-08-28T14:23:11.379Z,36.8
2022-08-28T14:29:09.758Z,36.9
2022-08-28T14:35:09.802Z,36.4
2022-08-28T14:41:09.819Z,37.6
2022-08-28T14:47:09.775Z,37
2022-08-28T14:53:09.899Z,37.4
2022-08-28T14:59:15.229Z,37
2022-08-28T15:05:09.786Z,37.2
2022-08-28T15:11:09.805Z,37.4
2022-08-28T15:17:09.826Z,37.3
2022-08-28T15:23:09.868Z,36.8
2022-08-28T15:29:09.857Z,37.7
2022-08-28T15:35:09.814Z,36.4
2022-08-28T15:41:09.782Z,37.4
2022-08-28T15:47:09.785Z,38.1
2022-08-28T15:53:09.826Z,37.3
2022-08-28T15:59:09.782Z,36.8
2022-08-28T16:05:09.807Z,37.6
2022-08-28T16:11:09.802Z,37.5
2022-08-28T16:17:10.717Z,38
2022-08-28T16:23:09.790Z,38.3
2022-08-28T16:29:09.838Z,38.3
2022-08-28T16:35:09.821Z,38.1
2022-08-28T16:41:09.805Z,38.3
2022-08-28T16:47:09.874Z,38.8
2022-08-28T16:53:09.799Z,39.1
2022-08-28T16:59:10.426Z,39.6
2022-08-28T17:05:09.812Z,39.9
2022-08-28T17:11:09.808Z,40.3
2022-08-28T17:17:09.800Z,40.3
2022-08-28T17:23:09.802Z,40.7
2022-08-28T17:29:09.808Z,40.8
2022-08-28T17:35:09.812Z,41.7
2022-08-28T17:41:09.817Z,41.3
2022-08-28T17:47:09.821Z,41.5
2022-08-28T17:53:09.808Z,42.3
2022-08-28T17:59:09.814Z,42.5
2022-08-28T18:05:09.810Z,42.6
2022-08-28T18:11:09.819Z,44.1
2022-08-28T18:17:09.824Z,44
2022-08-28T18:23:09.839Z,44.4
2022-08-28T18:29:09.809Z,44.8
2022-08-28T18:35:09.825Z,45.6
2022-08-28T18:41:09.825Z,45.2
2022-08-28T18:47:09.840Z,45.9
2022-08-28T18:53:09.860Z,46.5
2022-08-28T18:59:09.894Z,46.9
2022-08-28T19:05:09.845Z,47.3
2022-08-28T19:11:09.832Z,47.2
2022-08-28T19:17:09.823Z,47
2022-08-28T19:23:13.254Z,47.2
2022-08-28T19:29:09.830Z,47.5
2022-08-28T19:35:09.828Z,47.7
2022-08-28T19:41:09.856Z,47.9
2022-08-28T19:47:09.850Z,48.1
2022-08-28T19:53:09.859Z,48.4
2022-08-28T19:59:09.839Z,48.9
2022-08-28T20:05:09.827Z,49
2022-08-28T20:11:09.828Z,49.6
2022-08-28T20:17:09.817Z,49.6
2022-08-28T20:23:09.847Z,50.3
2022-08-28T20:29:09.831Z,50.1
2022-08-28T20:35:09.836Z,50.3
2022-08-28T20:41:09.860Z,50.2
2022-08-28T20:47:09.835Z,50.5
2022-08-28T20:53:09.856Z,50.5
2022-08-28T20:59:09.836Z,50.9
2022-08-28T21:05:09.904Z,51.4
2022-08-28T21:11:09.834Z,51.5
2022-08-28T21:17:09.832Z,51.9
2022-08-28T21:23:09.858Z,52
2022-08-28T21:29:09.853Z,52.2
2022-08-28T21:35:09.915Z,52.6
2022-08-28T21:41:09.854Z,52.7
2022-08-28T21:47:09.839Z,52.7
2022-08-28T21:53:09.832Z,53.1
2022-08-28T21:59:09.825Z,53.4
2022-08-28T22:05:09.850Z,53.7
2022-08-28T22:11:09.872Z,54.2
2022-08-28T22:17:11.940Z,54.5
2022-08-28T22:23:09.857Z,54.8
2022-08-28T22:29:09.848Z,55.1
2022-08-28T22:35:09.864Z,55.4
2022-08-28T22:41:09.851Z,55.3
2022-08-28T22:47:09.849Z,55.7
2022-08-28T22:53:09.839Z,56.2
2022-08-28T22:59:09.861Z,55.9
2022-08-28T23:05:09.864Z,56.6
2022-08-28T23:11:09.837Z,56.8
2022-08-28T23:17:09.858Z,57.6
2022-08-28T23:23:09.842Z,58.4
2022-08-28T23:29:09.864Z,58.3
2022-08-28T23:35:09.843Z,59.2
2022-08-28T23:41:09.854Z,59.3
2022-08-28T23:47:09.877Z,59.5
2022-08-28T23:53:09.859Z,59.2
2022-08-28T23:59:12.298Z,59.3
